sensor_id;sensor_type;location;lat;lon;timestamp;P1;durP1;ratioP1;P2;durP2;ratioP2
23682;SDS011;24897;53.514;10.482;2023-06-26T00:02:31;79.20;;;72.75;;
23682;SDS011;24897;53.514;10.482;2023-06-26T00:05:19;76.90;;;70.40;;
23682;SDS011;24897;53.514;10.482;2023-06-26T00:08:03;79.97;;;73.40;;
23682;SDS011;24897;53.514;10.482;2023-06-26T00:10:48;79.90;;;73.50;;
23682;SDS011;24897;53.514;10.482;2023-06-26T00:13:35;81.00;;;74.60;;
23682;SDS011;24897;53.514;10.482;2023-06-26T00:16:19;83.07;;;76.57;;
23682;SDS011;24897;53.514;10.482;2023-06-26T00:19:03;78.53;;;72.10;;
23682;SDS011;24897;53.514;10.482;2023-06-26T00:21:47;79.90;;;73.40;;
23682;SDS011;24897;53.514;10.482;2023-06-26T00:24:35;81.83;;;75.33;;
23682;SDS011;24897;53.514;10.482;2023-06-26T00:27:20;83.63;;;77.00;;
23682;SDS011;24897;53.514;10.482;2023-06-26T00:30:07;84.82;;;78.13;;
23682;SDS011;24897;53.514;10.482;2023-06-26T00:32:51;83.68;;;76.78;;
23682;SDS011;24897;53.514;10.482;2023-06-26T00:35:35;83.83;;;77.13;;
23682;SDS011;24897;53.514;10.482;2023-06-26T00:38:19;86.83;;;79.83;;
23682;SDS011;24897;53.514;10.482;2023-06-26T00:41:05;84.83;;;78.10;;
23682;SDS011;24897;53.514;10.482;2023-06-26T00:43:55;87.20;;;80.20;;
23682;SDS011;24897;53.514;10.482;2023-06-26T00:46:39;90.10;;;82.60;;
23682;SDS011;24897;53.514;10.482;2023-06-26T00:49:24;88.17;;;81.07;;
23682;SDS011;24897;53.514;10.482;2023-06-26T00:52:09;90.47;;;83.03;;
23682;SDS011;24897;53.514;10.482;2023-06-26T00:54:53;89.20;;;82.00;;
23682;SDS011;24897;53.514;10.482;2023-06-26T00:57:37;92.50;;;85.10;;
23682;SDS011;24897;53.514;10.482;2023-06-26T01:00:22;91.90;;;84.40;;
23682;SDS011;24897;53.514;10.482;2023-06-26T01:03:07;88.70;;;81.20;;
23682;SDS011;24897;53.514;10.482;2023-06-26T01:05:51;87.17;;;79.97;;
23682;SDS011;24897;53.514;10.482;2023-06-26T01:08:37;89.23;;;81.80;;
23682;SDS011;24897;53.514;10.482;2023-06-26T01:11:25;86.77;;;79.17;;
23682;SDS011;24897;53.514;10.482;2023-06-26T01:14:09;86.00;;;78.80;;
23682;SDS011;24897;53.514;10.482;2023-06-26T01:16:53;83.73;;;76.57;;
23682;SDS011;24897;53.514;10.482;2023-06-26T01:19:41;83.20;;;76.07;;
23682;SDS011;24897;53.514;10.482;2023-06-26T01:22:31;84.07;;;76.87;;
23682;SDS011;24897;53.514;10.482;2023-06-26T01:25:56;82.37;;;75.20;;
23682;SDS011;24897;53.514;10.482;2023-06-26T01:29:00;76.83;;;70.03;;
23682;SDS011;24897;53.514;10.482;2023-06-26T01:31:47;81.43;;;74.23;;
23682;SDS011;24897;53.514;10.482;2023-06-26T01:34:35;90.20;;;82.30;;
23682;SDS011;24897;53.514;10.482;2023-06-26T01:37:20;86.40;;;78.63;;
23682;SDS011;24897;53.514;10.482;2023-06-26T01:40:04;54.20;;;48.50;;
23682;SDS011;24897;53.514;10.482;2023-06-26T01:42:50;55.57;;;49.77;;
23682;SDS011;24897;53.514;10.482;2023-06-26T01:45:38;54.40;;;48.70;;
23682;SDS011;24897;53.514;10.482;2023-06-26T01:48:24;54.00;;;48.30;;
23682;SDS011;24897;53.514;10.482;2023-06-26T01:51:13;53.00;;;47.47;;
23682;SDS011;24897;53.514;10.482;2023-06-26T01:53:59;52.60;;;47.00;;
23682;SDS011;24897;53.514;10.482;2023-06-26T01:56:45;51.43;;;46.07;;
23682;SDS011;24897;53.514;10.482;2023-06-26T01:59:33;51.90;;;46.47;;
23682;SDS011;24897;53.514;10.482;2023-06-26T02:02:18;53.17;;;46.43;;
23682;SDS011;24897;53.514;10.482;2023-06-26T02:05:02;53.67;;;48.07;;
23682;SDS011;24897;53.514;10.482;2023-06-26T02:07:46;52.20;;;46.60;;
23682;SDS011;24897;53.514;10.482;2023-06-26T02:10:31;54.27;;;48.37;;
23682;SDS011;24897;53.514;10.482;2023-06-26T02:13:15;53.60;;;47.80;;
23682;SDS011;24897;53.514;10.482;2023-06-26T02:15:59;53.47;;;47.77;;
23682;SDS011;24897;53.514;10.482;2023-06-26T02:18:44;53.53;;;47.83;;
23682;SDS011;24897;53.514;10.482;2023-06-26T02:21:28;52.67;;;47.10;;
23682;SDS011;24897;53.514;10.482;2023-06-26T02:24:12;54.90;;;49.10;;
23682;SDS011;24897;53.514;10.482;2023-06-26T02:26:56;53.23;;;47.60;;
23682;SDS011;24897;53.514;10.482;2023-06-26T02:29:41;52.07;;;46.67;;
23682;SDS011;24897;53.514;10.482;2023-06-26T02:32:25;54.13;;;48.43;;
23682;SDS011;24897;53.514;10.482;2023-06-26T02:35:10;52.33;;;46.83;;
23682;SDS011;24897;53.514;10.482;2023-06-26T02:37:54;52.87;;;47.17;;
23682;SDS011;24897;53.514;10.482;2023-06-26T02:40:39;54.20;;;48.50;;
23682;SDS011;24897;53.514;10.482;2023-06-26T02:43:23;51.73;;;46.30;;
23682;SDS011;24897;53.514;10.482;2023-06-26T02:46:07;53.87;;;48.17;;
23682;SDS011;24897;53.514;10.482;2023-06-26T02:48:51;54.20;;;48.37;;
23682;SDS011;24897;53.514;10.482;2023-06-26T02:51:35;54.10;;;48.30;;
23682;SDS011;24897;53.514;10.482;2023-06-26T02:54:19;53.17;;;47.47;;
23682;SDS011;24897;53.514;10.482;2023-06-26T02:57:03;58.20;;;52.07;;
23682;SDS011;24897;53.514;10.482;2023-06-26T02:59:48;56.90;;;51.00;;
23682;SDS011;24897;53.514;10.482;2023-06-26T03:02:32;55.77;;;49.77;;
23682;SDS011;24897;53.514;10.482;2023-06-26T03:05:16;54.30;;;48.40;;
23682;SDS011;24897;53.514;10.482;2023-06-26T03:08:04;56.23;;;50.20;;
23682;SDS011;24897;53.514;10.482;2023-06-26T03:10:48;53.70;;;48.17;;
23682;SDS011;24897;53.514;10.482;2023-06-26T03:13:33;51.73;;;46.50;;
23682;SDS011;24897;53.514;10.482;2023-06-26T03:16:17;53.17;;;47.57;;
23682;SDS011;24897;53.514;10.482;2023-06-26T03:19:02;53.60;;;48.03;;
23682;SDS011;24897;53.514;10.482;2023-06-26T03:21:47;50.07;;;44.83;;
23682;SDS011;24897;53.514;10.482;2023-06-26T03:24:31;48.97;;;43.77;;
23682;SDS011;24897;53.514;10.482;2023-06-26T03:27:15;43.13;;;38.73;;
23682;SDS011;24897;53.514;10.482;2023-06-26T03:30:02;42.03;;;38.03;;
23682;SDS011;24897;53.514;10.482;2023-06-26T03:32:47;40.93;;;37.13;;
23682;SDS011;24897;53.514;10.482;2023-06-26T03:35:31;39.83;;;36.23;;
23682;SDS011;24897;53.514;10.482;2023-06-26T03:38:15;38.03;;;34.63;;
23682;SDS011;24897;53.514;10.482;2023-06-26T03:41:00;36.17;;;32.88;;
23682;SDS011;24897;53.514;10.482;2023-06-26T03:43:44;33.38;;;30.58;;
23682;SDS011;24897;53.514;10.482;2023-06-26T03:46:28;32.67;;;29.55;;
23682;SDS011;24897;53.514;10.482;2023-06-26T03:49:12;30.52;;;27.90;;
23682;SDS011;24897;53.514;10.482;2023-06-26T03:51:57;29.30;;;26.73;;
23682;SDS011;24897;53.514;10.482;2023-06-26T03:54:41;28.42;;;26.02;;
23682;SDS011;24897;53.514;10.482;2023-06-26T03:57:25;30.30;;;27.40;;
23682;SDS011;24897;53.514;10.482;2023-06-26T04:00:10;31.13;;;28.27;;
23682;SDS011;24897;53.514;10.482;2023-06-26T04:02:56;29.35;;;26.80;;
23682;SDS011;24897;53.514;10.482;2023-06-26T04:05:41;29.35;;;26.75;;
23682;SDS011;24897;53.514;10.482;2023-06-26T04:08:25;28.67;;;26.17;;
23682;SDS011;24897;53.514;10.482;2023-06-26T04:11:10;29.15;;;26.40;;
23682;SDS011;24897;53.514;10.482;2023-06-26T04:13:55;28.60;;;26.15;;
23682;SDS011;24897;53.514;10.482;2023-06-26T04:16:39;27.40;;;25.20;;
23682;SDS011;24897;53.514;10.482;2023-06-26T04:19:23;27.48;;;25.17;;
23682;SDS011;24897;53.514;10.482;2023-06-26T04:22:07;27.40;;;24.95;;
23682;SDS011;24897;53.514;10.482;2023-06-26T04:24:52;26.35;;;23.90;;
23682;SDS011;24897;53.514;10.482;2023-06-26T04:27:36;26.52;;;23.92;;
23682;SDS011;24897;53.514;10.482;2023-06-26T04:30:20;26.13;;;23.70;;
23682;SDS011;24897;53.514;10.482;2023-06-26T04:33:04;25.92;;;23.75;;
23682;SDS011;24897;53.514;10.482;2023-06-26T04:35:48;26.35;;;23.80;;
23682;SDS011;24897;53.514;10.482;2023-06-26T04:38:32;26.58;;;24.15;;
23682;SDS011;24897;53.514;10.482;2023-06-26T04:41:17;25.00;;;22.90;;
23682;SDS011;24897;53.514;10.482;2023-06-26T04:44:02;25.42;;;23.25;;
23682;SDS011;24897;53.514;10.482;2023-06-26T04:46:46;24.95;;;22.75;;
23682;SDS011;24897;53.514;10.482;2023-06-26T04:49:30;25.92;;;23.42;;
23682;SDS011;24897;53.514;10.482;2023-06-26T04:52:15;24.23;;;22.23;;
23682;SDS011;24897;53.514;10.482;2023-06-26T04:54:59;24.63;;;22.52;;
23682;SDS011;24897;53.514;10.482;2023-06-26T04:57:43;23.67;;;21.75;;
23682;SDS011;24897;53.514;10.482;2023-06-26T05:00:27;24.67;;;22.42;;
23682;SDS011;24897;53.514;10.482;2023-06-26T05:03:12;24.15;;;21.73;;
23682;SDS011;24897;53.514;10.482;2023-06-26T05:06:00;24.17;;;22.00;;
23682;SDS011;24897;53.514;10.482;2023-06-26T05:08:44;23.38;;;21.38;;
23682;SDS011;24897;53.514;10.482;2023-06-26T05:11:28;24.63;;;22.60;;
23682;SDS011;24897;53.514;10.482;2023-06-26T05:14:12;23.48;;;21.45;;
23682;SDS011;24897;53.514;10.482;2023-06-26T05:16:57;24.42;;;22.35;;
23682;SDS011;24897;53.514;10.482;2023-06-26T05:19:41;23.67;;;21.58;;
23682;SDS011;24897;53.514;10.482;2023-06-26T05:22:29;22.77;;;20.77;;
23682;SDS011;24897;53.514;10.482;2023-06-26T05:25:19;23.40;;;21.40;;
23682;SDS011;24897;53.514;10.482;2023-06-26T05:28:07;23.70;;;21.70;;
23682;SDS011;24897;53.514;10.482;2023-06-26T05:30:54;23.15;;;21.25;;
23682;SDS011;24897;53.514;10.482;2023-06-26T05:33:38;23.73;;;21.63;;
23682;SDS011;24897;53.514;10.482;2023-06-26T05:36:24;23.45;;;21.38;;
23682;SDS011;24897;53.514;10.482;2023-06-26T05:39:09;22.42;;;20.63;;
23682;SDS011;24897;53.514;10.482;2023-06-26T05:41:54;21.70;;;19.70;;
23682;SDS011;24897;53.514;10.482;2023-06-26T05:44:39;21.67;;;19.88;;
23682;SDS011;24897;53.514;10.482;2023-06-26T05:47:23;22.05;;;20.35;;
23682;SDS011;24897;53.514;10.482;2023-06-26T05:50:09;22.55;;;20.85;;
23682;SDS011;24897;53.514;10.482;2023-06-26T05:52:54;21.35;;;19.50;;
23682;SDS011;24897;53.514;10.482;2023-06-26T05:55:39;23.85;;;21.40;;
23682;SDS011;24897;53.514;10.482;2023-06-26T05:58:26;22.83;;;20.83;;
23682;SDS011;24897;53.514;10.482;2023-06-26T06:01:11;20.33;;;18.60;;
23682;SDS011;24897;53.514;10.482;2023-06-26T06:03:59;21.92;;;20.20;;
23682;SDS011;24897;53.514;10.482;2023-06-26T06:06:43;21.63;;;19.75;;
23682;SDS011;24897;53.514;10.482;2023-06-26T06:09:27;20.70;;;19.10;;
23682;SDS011;24897;53.514;10.482;2023-06-26T06:12:11;20.75;;;19.05;;
23682;SDS011;24897;53.514;10.482;2023-06-26T06:14:55;20.85;;;19.20;;
23682;SDS011;24897;53.514;10.482;2023-06-26T06:17:40;22.27;;;20.40;;
23682;SDS011;24897;53.514;10.482;2023-06-26T06:20:24;20.90;;;19.30;;
23682;SDS011;24897;53.514;10.482;2023-06-26T06:23:09;20.83;;;19.23;;
23682;SDS011;24897;53.514;10.482;2023-06-26T06:25:53;21.85;;;20.23;;
23682;SDS011;24897;53.514;10.482;2023-06-26T06:28:37;21.10;;;19.50;;
23682;SDS011;24897;53.514;10.482;2023-06-26T06:31:22;21.15;;;19.50;;
23682;SDS011;24897;53.514;10.482;2023-06-26T06:34:06;20.83;;;19.23;;
23682;SDS011;24897;53.514;10.482;2023-06-26T06:36:51;20.90;;;19.17;;
23682;SDS011;24897;53.514;10.482;2023-06-26T06:39:35;20.02;;;18.45;;
23682;SDS011;24897;53.514;10.482;2023-06-26T06:42:19;20.88;;;19.20;;
23682;SDS011;24897;53.514;10.482;2023-06-26T06:45:04;20.33;;;18.80;;
23682;SDS011;24897;53.514;10.482;2023-06-26T06:47:49;22.73;;;20.92;;
23682;SDS011;24897;53.514;10.482;2023-06-26T06:50:33;20.65;;;19.05;;
23682;SDS011;24897;53.514;10.482;2023-06-26T06:53:17;20.63;;;18.92;;
23682;SDS011;24897;53.514;10.482;2023-06-26T06:56:04;21.15;;;19.55;;
23682;SDS011;24897;53.514;10.482;2023-06-26T06:58:48;20.70;;;19.10;;
23682;SDS011;24897;53.514;10.482;2023-06-26T07:01:32;20.35;;;18.80;;
23682;SDS011;24897;53.514;10.482;2023-06-26T07:04:17;20.85;;;19.30;;
23682;SDS011;24897;53.514;10.482;2023-06-26T07:07:01;20.92;;;19.33;;
23682;SDS011;24897;53.514;10.482;2023-06-26T07:09:46;20.58;;;18.98;;
23682;SDS011;24897;53.514;10.482;2023-06-26T07:12:30;21.45;;;19.75;;
23682;SDS011;24897;53.514;10.482;2023-06-26T07:15:14;21.38;;;19.65;;
23682;SDS011;24897;53.514;10.482;2023-06-26T07:17:58;21.63;;;19.63;;
23682;SDS011;24897;53.514;10.482;2023-06-26T07:20:43;21.55;;;19.73;;
23682;SDS011;24897;53.514;10.482;2023-06-26T07:23:27;21.23;;;19.55;;
23682;SDS011;24897;53.514;10.482;2023-06-26T07:26:13;20.98;;;19.38;;
23682;SDS011;24897;53.514;10.482;2023-06-26T07:29:01;19.92;;;18.27;;
23682;SDS011;24897;53.514;10.482;2023-06-26T07:31:45;20.52;;;18.95;;
23682;SDS011;24897;53.514;10.482;2023-06-26T07:34:29;21.40;;;19.50;;
23682;SDS011;24897;53.514;10.482;2023-06-26T07:37:13;20.95;;;19.20;;
23682;SDS011;24897;53.514;10.482;2023-06-26T07:39:57;20.95;;;19.35;;
23682;SDS011;24897;53.514;10.482;2023-06-26T07:42:41;21.15;;;19.55;;
23682;SDS011;24897;53.514;10.482;2023-06-26T07:45:26;20.80;;;19.20;;
23682;SDS011;24897;53.514;10.482;2023-06-26T07:48:10;21.20;;;19.50;;
23682;SDS011;24897;53.514;10.482;2023-06-26T07:51:06;21.23;;;19.70;;
23682;SDS011;24897;53.514;10.482;2023-06-26T07:53:51;21.75;;;19.92;;
23682;SDS011;24897;53.514;10.482;2023-06-26T07:56:51;21.13;;;19.40;;
23682;SDS011;24897;53.514;10.482;2023-06-26T07:59:36;21.17;;;19.48;;
23682;SDS011;24897;53.514;10.482;2023-06-26T08:02:20;20.55;;;18.95;;
23682;SDS011;24897;53.514;10.482;2023-06-26T08:05:05;19.83;;;18.33;;
23682;SDS011;24897;53.514;10.482;2023-06-26T08:07:50;20.58;;;18.98;;
23682;SDS011;24897;53.514;10.482;2023-06-26T08:10:34;21.50;;;19.70;;
23682;SDS011;24897;53.514;10.482;2023-06-26T08:13:18;20.42;;;18.70;;
23682;SDS011;24897;53.514;10.482;2023-06-26T08:16:03;21.40;;;19.67;;
23682;SDS011;24897;53.514;10.482;2023-06-26T08:18:48;22.10;;;20.10;;
23682;SDS011;24897;53.514;10.482;2023-06-26T08:21:32;21.50;;;19.77;;
23682;SDS011;24897;53.514;10.482;2023-06-26T08:24:16;21.17;;;19.50;;
23682;SDS011;24897;53.514;10.482;2023-06-26T08:27:02;22.30;;;20.45;;
23682;SDS011;24897;53.514;10.482;2023-06-26T08:29:47;21.38;;;19.67;;
23682;SDS011;24897;53.514;10.482;2023-06-26T08:32:31;21.52;;;19.83;;
23682;SDS011;24897;53.514;10.482;2023-06-26T08:35:15;21.67;;;19.88;;
23682;SDS011;24897;53.514;10.482;2023-06-26T08:38:00;22.85;;;20.88;;
23682;SDS011;24897;53.514;10.482;2023-06-26T08:40:44;22.25;;;20.52;;
23682;SDS011;24897;53.514;10.482;2023-06-26T08:43:28;21.90;;;20.27;;
23682;SDS011;24897;53.514;10.482;2023-06-26T08:46:12;23.77;;;21.83;;
23682;SDS011;24897;53.514;10.482;2023-06-26T08:48:56;21.85;;;20.15;;
23682;SDS011;24897;53.514;10.482;2023-06-26T08:51:45;22.70;;;20.77;;
23682;SDS011;24897;53.514;10.482;2023-06-26T08:54:40;22.70;;;20.90;;
23682;SDS011;24897;53.514;10.482;2023-06-26T08:57:32;22.75;;;20.70;;
23682;SDS011;24897;53.514;10.482;2023-06-26T09:00:18;22.17;;;20.48;;
23682;SDS011;24897;53.514;10.482;2023-06-26T09:03:03;22.75;;;20.90;;
23682;SDS011;24897;53.514;10.482;2023-06-26T09:05:47;22.13;;;20.35;;
23682;SDS011;24897;53.514;10.482;2023-06-26T09:08:31;22.60;;;20.60;;
23682;SDS011;24897;53.514;10.482;2023-06-26T09:11:15;22.70;;;20.88;;
23682;SDS011;24897;53.514;10.482;2023-06-26T09:14:00;22.90;;;20.90;;
23682;SDS011;24897;53.514;10.482;2023-06-26T09:16:48;23.33;;;21.35;;
23682;SDS011;24897;53.514;10.482;2023-06-26T09:19:32;22.73;;;20.70;;
23682;SDS011;24897;53.514;10.482;2023-06-26T09:22:21;22.15;;;20.45;;
23682;SDS011;24897;53.514;10.482;2023-06-26T09:25:06;22.42;;;20.42;;
23682;SDS011;24897;53.514;10.482;2023-06-26T09:27:52;21.85;;;20.15;;
23682;SDS011;24897;53.514;10.482;2023-06-26T09:30:37;23.25;;;21.20;;
23682;SDS011;24897;53.514;10.482;2023-06-26T09:33:21;22.17;;;20.48;;
23682;SDS011;24897;53.514;10.482;2023-06-26T09:36:06;22.70;;;20.80;;
23682;SDS011;24897;53.514;10.482;2023-06-26T09:39:03;24.50;;;22.60;;
23682;SDS011;24897;53.514;10.482;2023-06-26T09:41:48;25.27;;;23.35;;
23682;SDS011;24897;53.514;10.482;2023-06-26T09:44:34;26.23;;;23.95;;
23682;SDS011;24897;53.514;10.482;2023-06-26T09:47:18;26.25;;;24.17;;
23682;SDS011;24897;53.514;10.482;2023-06-26T09:50:03;24.85;;;22.80;;
23682;SDS011;24897;53.514;10.482;2023-06-26T09:52:50;25.33;;;23.13;;
23682;SDS011;24897;53.514;10.482;2023-06-26T09:55:35;25.60;;;23.48;;
23682;SDS011;24897;53.514;10.482;2023-06-26T09:58:20;26.90;;;24.60;;
23682;SDS011;24897;53.514;10.482;2023-06-26T10:01:06;26.45;;;24.30;;
23682;SDS011;24897;53.514;10.482;2023-06-26T10:03:54;26.35;;;24.15;;
23682;SDS011;24897;53.514;10.482;2023-06-26T10:06:45;25.42;;;23.42;;
23682;SDS011;24897;53.514;10.482;2023-06-26T10:09:33;26.90;;;24.70;;
23682;SDS011;24897;53.514;10.482;2023-06-26T10:12:30;27.13;;;24.45;;
23682;SDS011;24897;53.514;10.482;2023-06-26T10:15:15;27.05;;;24.73;;
23682;SDS011;24897;53.514;10.482;2023-06-26T10:18:03;28.33;;;25.70;;
23682;SDS011;24897;53.514;10.482;2023-06-26T10:20:49;27.75;;;25.45;;
23682;SDS011;24897;53.514;10.482;2023-06-26T10:23:37;30.35;;;27.70;;
23682;SDS011;24897;53.514;10.482;2023-06-26T10:26:24;31.13;;;28.33;;
23682;SDS011;24897;53.514;10.482;2023-06-26T10:29:10;30.38;;;27.77;;
23682;SDS011;24897;53.514;10.482;2023-06-26T10:31:55;30.67;;;27.95;;
23682;SDS011;24897;53.514;10.482;2023-06-26T10:34:41;31.35;;;28.42;;
23682;SDS011;24897;53.514;10.482;2023-06-26T10:37:45;32.80;;;29.90;;
23682;SDS011;24897;53.514;10.482;2023-06-26T10:43:29;31.48;;;28.63;;
23682;SDS011;24897;53.514;10.482;2023-06-26T10:46:17;31.52;;;28.35;;
23682;SDS011;24897;53.514;10.482;2023-06-26T10:49:03;31.67;;;28.63;;
23682;SDS011;24897;53.514;10.482;2023-06-26T10:51:48;33.65;;;30.33;;
23682;SDS011;24897;53.514;10.482;2023-06-26T10:54:33;44.08;;;40.40;;
23682;SDS011;24897;53.514;10.482;2023-06-26T10:57:23;66.45;;;60.05;;
23682;SDS011;24897;53.514;10.482;2023-06-26T11:00:09;59.80;;;53.55;;
23682;SDS011;24897;53.514;10.482;2023-06-26T11:02:58;58.67;;;52.70;;
23682;SDS011;24897;53.514;10.482;2023-06-26T11:05:44;52.87;;;47.43;;
23682;SDS011;24897;53.514;10.482;2023-06-26T11:08:48;51.80;;;46.33;;
23682;SDS011;24897;53.514;10.482;2023-06-26T11:14:54;49.43;;;44.33;;
23682;SDS011;24897;53.514;10.482;2023-06-26T11:17:38;48.77;;;43.67;;
23682;SDS011;24897;53.514;10.482;2023-06-26T11:20:24;50.17;;;45.17;;
23682;SDS011;24897;53.514;10.482;2023-06-26T11:23:08;53.93;;;48.73;;
23682;SDS011;24897;53.514;10.482;2023-06-26T11:25:53;51.83;;;46.60;;
23682;SDS011;24897;53.514;10.482;2023-06-26T11:28:41;55.40;;;49.80;;
23682;SDS011;24897;53.514;10.482;2023-06-26T11:31:31;52.87;;;47.67;;
23682;SDS011;24897;53.514;10.482;2023-06-26T11:34:16;50.20;;;45.20;;
23682;SDS011;24897;53.514;10.482;2023-06-26T11:37:01;49.47;;;44.67;;
23682;SDS011;24897;53.514;10.482;2023-06-26T11:39:46;54.40;;;49.00;;
23682;SDS011;24897;53.514;10.482;2023-06-26T11:42:30;53.63;;;48.13;;
23682;SDS011;24897;53.514;10.482;2023-06-26T11:45:14;52.97;;;47.87;;
23682;SDS011;24897;53.514;10.482;2023-06-26T11:48:00;55.93;;;50.60;;
23682;SDS011;24897;53.514;10.482;2023-06-26T11:50:47;50.27;;;45.47;;
23682;SDS011;24897;53.514;10.482;2023-06-26T11:53:41;54.17;;;48.93;;
23682;SDS011;24897;53.514;10.482;2023-06-26T11:56:27;45.27;;;40.73;;
23682;SDS011;24897;53.514;10.482;2023-06-26T11:59:11;43.10;;;38.58;;
23682;SDS011;24897;53.514;10.482;2023-06-26T12:01:56;50.25;;;45.08;;
23682;SDS011;24897;53.514;10.482;2023-06-26T12:04:42;45.37;;;40.87;;
23682;SDS011;24897;53.514;10.482;2023-06-26T12:07:27;49.80;;;45.05;;
23682;SDS011;24897;53.514;10.482;2023-06-26T12:10:12;42.35;;;38.13;;
23682;SDS011;24897;53.514;10.482;2023-06-26T12:12:57;41.42;;;37.08;;
23682;SDS011;24897;53.514;10.482;2023-06-26T12:15:44;39.13;;;35.22;;
23682;SDS011;24897;53.514;10.482;2023-06-26T12:18:35;42.45;;;38.75;;
23682;SDS011;24897;53.514;10.482;2023-06-26T12:24:25;44.78;;;40.65;;
23682;SDS011;24897;53.514;10.482;2023-06-26T12:27:10;37.50;;;33.78;;
23682;SDS011;24897;53.514;10.482;2023-06-26T12:29:55;37.28;;;33.72;;
23682;SDS011;24897;53.514;10.482;2023-06-26T12:32:40;38.92;;;35.25;;
23682;SDS011;24897;53.514;10.482;2023-06-26T12:35:32;34.30;;;31.27;;
23682;SDS011;24897;53.514;10.482;2023-06-26T12:38:19;33.70;;;30.50;;
23682;SDS011;24897;53.514;10.482;2023-06-26T12:41:04;33.55;;;30.50;;
23682;SDS011;24897;53.514;10.482;2023-06-26T12:43:48;31.20;;;28.23;;
23682;SDS011;24897;53.514;10.482;2023-06-26T12:46:36;28.30;;;25.73;;
23682;SDS011;24897;53.514;10.482;2023-06-26T12:49:28;26.27;;;23.90;;
23682;SDS011;24897;53.514;10.482;2023-06-26T12:52:19;27.75;;;24.95;;
23682;SDS011;24897;53.514;10.482;2023-06-26T12:55:05;25.95;;;23.55;;
23682;SDS011;24897;53.514;10.482;2023-06-26T12:57:50;30.50;;;27.63;;
23682;SDS011;24897;53.514;10.482;2023-06-26T13:00:35;27.15;;;24.73;;
23682;SDS011;24897;53.514;10.482;2023-06-26T13:03:22;30.45;;;27.85;;
23682;SDS011;24897;53.514;10.482;2023-06-26T13:06:07;24.30;;;22.25;;
23682;SDS011;24897;53.514;10.482;2023-06-26T13:08:51;27.23;;;24.77;;
23682;SDS011;24897;53.514;10.482;2023-06-26T13:11:36;25.30;;;23.17;;
23682;SDS011;24897;53.514;10.482;2023-06-26T13:14:21;25.60;;;23.42;;
23682;SDS011;24897;53.514;10.482;2023-06-26T13:17:06;24.63;;;22.60;;
23682;SDS011;24897;53.514;10.482;2023-06-26T13:19:50;25.67;;;23.15;;
23682;SDS011;24897;53.514;10.482;2023-06-26T13:22:34;22.23;;;20.00;;
23682;SDS011;24897;53.514;10.482;2023-06-26T13:25:18;20.42;;;18.52;;
23682;SDS011;24897;53.514;10.482;2023-06-26T13:28:02;20.33;;;18.50;;
23682;SDS011;24897;53.514;10.482;2023-06-26T13:30:47;20.13;;;18.10;;
23682;SDS011;24897;53.514;10.482;2023-06-26T13:33:34;20.48;;;18.63;;
23682;SDS011;24897;53.514;10.482;2023-06-26T13:36:18;19.52;;;17.67;;
23682;SDS011;24897;53.514;10.482;2023-06-26T13:39:03;19.65;;;18.02;;
23682;SDS011;24897;53.514;10.482;2023-06-26T13:41:47;19.92;;;17.92;;
23682;SDS011;24897;53.514;10.482;2023-06-26T13:44:31;17.80;;;16.20;;
23682;SDS011;24897;53.514;10.482;2023-06-26T13:47:15;19.00;;;17.27;;
23682;SDS011;24897;53.514;10.482;2023-06-26T13:50:00;19.40;;;17.35;;
23682;SDS011;24897;53.514;10.482;2023-06-26T13:52:44;18.88;;;17.17;;
23682;SDS011;24897;53.514;10.482;2023-06-26T13:55:28;20.10;;;18.30;;
23682;SDS011;24897;53.514;10.482;2023-06-26T13:58:12;21.10;;;19.00;;
23682;SDS011;24897;53.514;10.482;2023-06-26T14:00:57;20.27;;;18.48;;
23682;SDS011;24897;53.514;10.482;2023-06-26T14:07:24;20.58;;;18.63;;
23682;SDS011;24897;53.514;10.482;2023-06-26T14:10:08;20.50;;;18.67;;
23682;SDS011;24897;53.514;10.482;2023-06-26T14:12:53;20.63;;;18.55;;
23682;SDS011;24897;53.514;10.482;2023-06-26T14:15:37;20.95;;;18.95;;
23682;SDS011;24897;53.514;10.482;2023-06-26T14:18:23;19.88;;;17.98;;
23682;SDS011;24897;53.514;10.482;2023-06-26T14:21:07;21.23;;;18.98;;
23682;SDS011;24897;53.514;10.482;2023-06-26T14:23:55;18.45;;;16.70;;
23682;SDS011;24897;53.514;10.482;2023-06-26T14:26:39;19.05;;;17.13;;
23682;SDS011;24897;53.514;10.482;2023-06-26T14:29:27;18.80;;;16.85;;
23682;SDS011;24897;53.514;10.482;2023-06-26T14:32:11;20.30;;;17.73;;
23682;SDS011;24897;53.514;10.482;2023-06-26T14:34:58;19.00;;;17.17;;
23682;SDS011;24897;53.514;10.482;2023-06-26T14:37:42;17.85;;;16.23;;
23682;SDS011;24897;53.514;10.482;2023-06-26T14:40:27;17.90;;;16.15;;
23682;SDS011;24897;53.514;10.482;2023-06-26T14:43:11;17.60;;;16.10;;
23682;SDS011;24897;53.514;10.482;2023-06-26T14:45:56;18.40;;;16.80;;
23682;SDS011;24897;53.514;10.482;2023-06-26T14:48:40;18.25;;;16.45;;
23682;SDS011;24897;53.514;10.482;2023-06-26T14:51:24;17.42;;;15.98;;
23682;SDS011;24897;53.514;10.482;2023-06-26T14:54:09;17.23;;;15.73;;
23682;SDS011;24897;53.514;10.482;2023-06-26T14:56:53;16.90;;;15.27;;
23682;SDS011;24897;53.514;10.482;2023-06-26T14:59:37;17.52;;;15.73;;
23682;SDS011;24897;53.514;10.482;2023-06-26T15:02:21;17.73;;;16.00;;
23682;SDS011;24897;53.514;10.482;2023-06-26T15:05:05;16.35;;;14.93;;
23682;SDS011;24897;53.514;10.482;2023-06-26T15:07:50;16.75;;;15.05;;
23682;SDS011;24897;53.514;10.482;2023-06-26T15:10:34;16.67;;;15.18;;
23682;SDS011;24897;53.514;10.482;2023-06-26T15:13:18;19.98;;;17.75;;
23682;SDS011;24897;53.514;10.482;2023-06-26T15:16:02;20.63;;;18.73;;
23682;SDS011;24897;53.514;10.482;2023-06-26T15:18:46;16.90;;;15.48;;
23682;SDS011;24897;53.514;10.482;2023-06-26T15:21:31;17.42;;;15.77;;
23682;SDS011;24897;53.514;10.482;2023-06-26T15:24:15;17.20;;;15.80;;
23682;SDS011;24897;53.514;10.482;2023-06-26T15:26:59;17.73;;;15.95;;
23682;SDS011;24897;53.514;10.482;2023-06-26T15:29:44;16.85;;;15.45;;
23682;SDS011;24897;53.514;10.482;2023-06-26T15:32:28;17.70;;;16.08;;
23682;SDS011;24897;53.514;10.482;2023-06-26T15:35:12;16.50;;;15.10;;
23682;SDS011;24897;53.514;10.482;2023-06-26T15:37:56;16.50;;;15.00;;
23682;SDS011;24897;53.514;10.482;2023-06-26T15:40:40;16.50;;;15.20;;
23682;SDS011;24897;53.514;10.482;2023-06-26T15:43:27;16.10;;;14.80;;
23682;SDS011;24897;53.514;10.482;2023-06-26T15:46:12;16.25;;;14.70;;
23682;SDS011;24897;53.514;10.482;2023-06-26T15:48:56;16.48;;;14.70;;
23682;SDS011;24897;53.514;10.482;2023-06-26T15:51:41;15.85;;;14.52;;
23682;SDS011;24897;53.514;10.482;2023-06-26T15:54:25;16.08;;;14.70;;
23682;SDS011;24897;53.514;10.482;2023-06-26T15:57:09;16.38;;;14.73;;
23682;SDS011;24897;53.514;10.482;2023-06-26T15:59:53;16.60;;;15.10;;
23682;SDS011;24897;53.514;10.482;2023-06-26T16:02:38;16.70;;;15.40;;
23682;SDS011;24897;53.514;10.482;2023-06-26T16:05:24;17.10;;;15.55;;
23682;SDS011;24897;53.514;10.482;2023-06-26T16:08:08;16.65;;;15.15;;